Terminal Aerodrome Forecast
Issued by NWS

Home | Current Version | Previous Version | Text Only | Print | Product List | Glossary On
Versions: 1 2 3 4 5 6 7 8 9 10 11 12 13 14
000
FTUS46 KSEW 020600 AAA
TAFHQM
TAF AMD
KHQM 020621Z 0206/0306 VRB04KT P6SM VCSH SCT022 SCT050
     FM020900 VRB03KT P6SM OVC022
     FM021200 VRB03KT P6SM OVC018
     FM021800 23008KT P6SM OVC025
     FM022100 23012KT P6SM SCT030 BKN050 BKN200 PROB30 0221/0302
      -SHRA
     FM030200 19008KT P6SM BKN050 BKN110 OVC200=

USA.gov is the U.S. government's official web portal to all federal, state and local government web resources and services.